createdAt,value
2022-10-08T00:01:39.019Z,100894.63
2022-10-08T00:07:42.734Z,100925.88
2022-10-08T00:13:46.101Z,100880.66
2022-10-08T00:19:47.832Z,100876.41
2022-10-08T00:25:49.554Z,100857.88
2022-10-08T00:31:51.863Z,100888.97
2022-10-08T00:37:53.714Z,100841.00
2022-10-08T00:43:59.560Z,100860.22
2022-10-08T00:50:10.452Z,100859.88
2022-10-08T00:56:12.256Z,100872.78
2022-10-08T01:02:14.510Z,100858.09
2022-10-08T01:08:26.026Z,100858.44
2022-10-08T01:14:49.231Z,100861.81
2022-10-08T01:21:06.149Z,100861.91
2022-10-08T01:27:31.376Z,100786.78
2022-10-08T01:33:48.122Z,100855.69
2022-10-08T01:39:53.676Z,100832.00
2022-10-08T01:46:00.482Z,100851.28
2022-10-08T01:52:08.497Z,100822.75
2022-10-08T01:58:16.809Z,100853.50
2022-10-08T02:04:35.468Z,100811.22
2022-10-08T02:10:37.865Z,100834.03
2022-10-08T02:16:48.740Z,100835.75
2022-10-08T02:22:59.463Z,100837.69
2022-10-08T02:29:18.273Z,100834.03
2022-10-08T02:35:39.919Z,100832.19
2022-10-08T02:41:46.674Z,100844.63
2022-10-08T02:47:53.575Z,100819.47
2022-10-08T02:53:56.334Z,100830.75
2022-10-08T02:59:59.120Z,100758.03
2022-10-08T03:06:08.451Z,100803.50
2022-10-08T03:12:10.615Z,100798.41
2022-10-08T03:18:13.153Z,100776.28
2022-10-08T03:24:15.819Z,100814.13
2022-10-08T03:30:17.740Z,100816.31
2022-10-08T03:36:20.929Z,100814.00
2022-10-08T03:42:22.661Z,100779.53
2022-10-08T03:48:24.401Z,100751.19
2022-10-08T03:54:26.189Z,100803.84
2022-10-08T04:00:28.035Z,100753.28
2022-10-08T04:06:30.050Z,100777.69
2022-10-08T04:12:31.984Z,100762.13
2022-10-08T04:18:34.269Z,100726.13
2022-10-08T04:24:36.137Z,100723.06
2022-10-08T04:30:38.012Z,100709.53
2022-10-08T04:36:40.525Z,100769.09
